Temp: 9.3°C   Baro: 1017.9mb
  Wind: 8.1mph   Dir: W (281°)
  Rain: 0.0mm (0.0mm/hr)
  Sun: 881W/m2  Humidity: 64%

Historic data

Bath Spa Weather Station Historical Data
Daily Summary for December 07, 2023 Units:  English    Metric   Both
Daily Weekly Monthly Yearly Custom
  High: Low: Average:
Temperature: 46.8 °F 42.3 °F 44.7 °F
Dew Point: 45.2 °F 39.7 °F 42.7 °F
Humidity: 95% 89% 93%
Wind Speed: 14.2mph 0mph 6.1mph
Wind Gust: 24mph - -
Wind- - SSE
Pressure: 29.91 in 29.49 in -
Precipitation: 0.13 in    
Historical Graphs
 
 
Tabular Data for December 07, 2023
Time Temperature Dew Point Pressure Wind Wind Speed Wind Gust Humidity Rainfall Rate (Hourly) solar
00:09 42.3 °F 39.8 °F 29.91 in SE 5.4 mph 11 mph 91.2% 0.01 in 0 W/m2
00:14 42.3 °F 39.7 °F 29.91 in SE 4.4 mph 14 mph 91% 0.01 in 0 W/m2
00:19 42.4 °F 39.8 °F 29.91 in SE 6 mph 12 mph 91% 0.01 in 0 W/m2
00:24 42.4 °F 40.2 °F 29.90 in ESE 7 mph 15 mph 91.8% 0.01 in 0 W/m2
00:29 42.4 °F 40.3 °F 29.90 in ESE 7.8 mph 15 mph 92% 0.01 in 0 W/m2
00:34 42.4 °F 40.3 °F 29.90 in SE 7.6 mph 16 mph 92% 0.02 in 0 W/m2
00:39 42.4 °F 40.3 °F 29.89 in ESE 6.2 mph 13 mph 92% 0.02 in 0 W/m2
00:44 42.4 °F 40.3 °F 29.89 in ESE 6.9 mph 14 mph 92% 0.02 in 0 W/m2
00:49 42.4 °F 40.3 °F 29.89 in SE 6.5 mph 15 mph 92% 0.02 in 0 W/m2
00:54 42.4 °F 40.3 °F 29.89 in ESE 5.5 mph 16 mph 92% 0.02 in 0 W/m2
00:59 42.4 °F 40.3 °F 29.88 in SE 5.7 mph 16 mph 92% 0.03 in 0 W/m2
01:04 42.4 °F 40.3 °F 29.88 in ESE 7.1 mph 14 mph 92% 0.03 in 0 W/m2
01:09 42.4 °F 40.3 °F 29.88 in ESE 4.8 mph 13 mph 92% 0.03 in 0 W/m2
01:14 42.4 °F 40.3 °F 29.88 in ESE 7.4 mph 12 mph 92% 0.03 in 0 W/m2
01:19 42.4 °F 40.3 °F 29.88 in SE 6.4 mph 15 mph 92.2% 0.03 in 0 W/m2
01:24 42.4 °F 40.6 °F 29.88 in ESE 8.4 mph 19 mph 93% 0.03 in 0 W/m2
01:29 42.4 °F 40.6 °F 29.88 in SE 5.8 mph 15 mph 93% 0.03 in 0 W/m2
01:34 42.4 °F 40.6 °F 29.87 in SE 10.2 mph 16 mph 93% 0.03 in 0 W/m2
01:39 42.5 °F 40.7 °F 29.87 in ESE 6.8 mph 16 mph 93% 0.02 in 0 W/m2
01:44 42.4 °F 40.6 °F 29.87 in ESE 6.8 mph 15 mph 93% 0.03 in 0 W/m2
01:49 42.4 °F 40.6 °F 29.86 in SE 6.2 mph 13 mph 93% 0.03 in 0 W/m2
01:54 42.4 °F 40.6 °F 29.86 in ESE 8.8 mph 15 mph 93% 0.03 in 0 W/m2
01:59 42.4 °F 40.6 °F 29.85 in SE 6.2 mph 15 mph 93% 0.02 in 0 W/m2
02:04 42.4 °F 40.6 °F 29.85 in ESE 7.8 mph 15 mph 93% 0.02 in 0 W/m2
02:09 42.6 °F 40.8 °F 29.85 in SE 6.8 mph 17 mph 93% 0.02 in 0 W/m2
02:14 42.6 °F 40.8 °F 29.85 in ESE 9.6 mph 17 mph 93% 0.02 in 0 W/m2
02:19 42.6 °F 40.8 °F 29.85 in ESE 6.4 mph 16 mph 93% 0.02 in 0 W/m2
02:24 42.7 °F 40.9 °F 29.85 in ESE 8.2 mph 18 mph 93% 0.02 in 0 W/m2
02:29 42.9 °F 41.1 °F 29.84 in SE 5.5 mph 18 mph 93% 0.02 in 0 W/m2
02:34 43 °F 41.2 °F 29.84 in ESE 9 mph 15 mph 93% 0.02 in 0 W/m2
02:39 43 °F 41.2 °F 29.84 in ESE 9.8 mph 16 mph 93% 0.02 in 0 W/m2
02:44 43 °F 41.2 °F 29.83 in ESE 9.4 mph 17 mph 93% 0.02 in 0 W/m2
02:49 43.1 °F 41.3 °F 29.83 in SE 10.2 mph 18 mph 93% 0.02 in 0 W/m2
02:54 43.2 °F 41.4 °F 29.83 in SE 8.2 mph 19 mph 93.2% 0.02 in 0 W/m2
02:59 43.3 °F 41.5 °F 29.83 in SE 8.6 mph 17 mph 93% 0.01 in 0 W/m2
03:04 43.3 °F 41.5 °F 29.83 in ESE 6.2 mph 14 mph 93% 0.01 in 0 W/m2
03:09 43.4 °F 41.8 °F 29.83 in SE 5.6 mph 18 mph 93.8% 0.01 in 0 W/m2
03:14 43.6 °F 42 °F 29.83 in SE 8.6 mph 19 mph 94% 0.01 in 0 W/m2
03:19 43.7 °F 42.1 °F 29.82 in SE 8.2 mph 17 mph 94% 0.01 in 0 W/m2
03:24 43.9 °F 42.3 °F 29.82 in SE 6 mph 18 mph 94% 0.01 in 0 W/m2
03:29 43.9 °F 42.3 °F 29.82 in SE 6 mph 15 mph 94% 0.01 in 0 W/m2
03:34 44.1 °F 42.4 °F 29.82 in SE 9 mph 13 mph 94% 0.00 in 0 W/m2
03:39 44.1 °F 42.4 °F 29.82 in SE 7.4 mph 17 mph 94% 0.00 in 0 W/m2
03:44 44.1 °F 42.4 °F 29.81 in SE 10 mph 19 mph 94% 0.00 in 0 W/m2
03:49 44.2 °F 42.6 °F 29.81 in SE 6.6 mph 19 mph 94% 0.00 in 0 W/m2
03:54 44.2 °F 42.6 °F 29.80 in SE 6.6 mph 16 mph 94% 0.00 in 0 W/m2
03:59 44.4 °F 42.8 °F 29.80 in SE 10.6 mph 17 mph 94% 0.00 in 0 W/m2
04:04 44.4 °F 42.8 °F 29.80 in SE 7.8 mph 19 mph 94% 0.00 in 0 W/m2
04:09 44.5 °F 42.9 °F 29.80 in SE 11.2 mph 19 mph 94% 0.00 in 0 W/m2
04:14 44.7 °F 42.7 °F 29.80 in SSE 8.4 mph 19 mph 93% 0.00 in 0 W/m2
04:19 44.8 °F 42.8 °F 29.80 in ESE 6.2 mph 14 mph 93% 0.00 in 0 W/m2
04:24 44.7 °F 42.7 °F 29.80 in SE 6.2 mph 14 mph 93% 0.00 in 0 W/m2
04:29 44.8 °F 42.8 °F 29.80 in SE 8.8 mph 17 mph 93% 0.00 in 0 W/m2
04:34 45 °F 43 °F 29.80 in SE 7.5 mph 17 mph 93% 0.00 in 0 W/m2
04:39 44.8 °F 42.8 °F 29.80 in SE 6.6 mph 15 mph 93% 0.00 in 0 W/m2
04:44 44.8 °F 42.8 °F 29.80 in SE 8 mph 15 mph 93% 0.00 in 0 W/m2
04:49 44.8 °F 42.8 °F 29.80 in SE 7 mph 18 mph 93% 0.00 in 0 W/m2
04:54 44.9 °F 42.9 °F 29.80 in SE 6.1 mph 18 mph 93% 0.00 in 0 W/m2
04:59 44.9 °F 42.9 °F 29.80 in East 7.8 mph 16 mph 93% 0.00 in 0 W/m2
05:04 45 °F 43 °F 29.80 in SE 5.4 mph 14 mph 93% 0.00 in 0 W/m2
05:09 44.8 °F 42.7 °F 29.80 in SE 6 mph 12 mph 92.4% 0.00 in 0 W/m2
05:14 44.8 °F 42.6 °F 29.79 in SE 7.8 mph 13 mph 92.2% 0.00 in 0 W/m2
05:19 44.8 °F 42.6 °F 29.80 in ESE 7 mph 17 mph 92% 0.00 in 0 W/m2
05:24 44.8 °F 42.6 °F 29.79 in ESE 6 mph 14 mph 92% 0.00 in 0 W/m2
05:29 44.8 °F 42.6 °F 29.79 in SE 7.6 mph 12 mph 92% 0.00 in 0 W/m2
05:34 44.8 °F 42.6 °F 29.79 in SE 5.2 mph 13 mph 92% 0.00 in 0 W/m2
05:39 44.8 °F 42.6 °F 29.79 in SE 8.4 mph 17 mph 92% 0.00 in 0 W/m2
05:44 44.8 °F 42.6 °F 29.79 in ESE 9.6 mph 19 mph 92% 0.00 in 0 W/m2
05:49 44.9 °F 42.7 °F 29.78 in ESE 9.9 mph 19 mph 92% 0.00 in 0 W/m2
05:54 44.8 °F 42.6 °F 29.78 in SE 8 mph 17 mph 92% 0.00 in 0 W/m2
05:59 44.9 °F 42.6 °F 29.78 in SE 6.8 mph 12 mph 91.6% 0.00 in 0 W/m2
06:04 45 °F 42.4 °F 29.77 in SE 9.2 mph 17 mph 91% 0.00 in 0 W/m2
06:09 45 °F 42.4 °F 29.77 in SSE 8.8 mph 16 mph 91% 0.00 in 0 W/m2
06:14 44.8 °F 42.3 °F 29.77 in SE 6.8 mph 15 mph 91% 0.00 in 0 W/m2
06:19 44.8 °F 42.3 °F 29.76 in SE 8.8 mph 19 mph 91% 0.00 in 0 W/m2
06:24 44.8 °F 42.3 °F 29.77 in SE 6.9 mph 14 mph 91% 0.00 in 0 W/m2
06:29 44.8 °F 42.3 °F 29.77 in ESE 5.3 mph 19 mph 91% 0.00 in 0 W/m2
06:34 44.8 °F 42.3 °F 29.77 in ESE 7.8 mph 15 mph 91% 0.00 in 0 W/m2
06:39 44.6 °F 42.1 °F 29.76 in SE 6 mph 18 mph 91% 0.00 in 0 W/m2
06:44 44.6 °F 42.1 °F 29.76 in SE 4.9 mph 11 mph 91% 0.00 in 0 W/m2
06:49 44.6 °F 42.1 °F 29.76 in ESE 7 mph 12 mph 91% 0.00 in 0 W/m2
06:54 44.6 °F 42.1 °F 29.76 in SE 5.7 mph 11 mph 91% 0.00 in 0 W/m2
06:59 44.7 °F 42.2 °F 29.76 in SE 5 mph 17 mph 91% 0.00 in 0 W/m2
07:04 44.8 °F 42.3 °F 29.76 in ESE 9 mph 19 mph 91% 0.00 in 0 W/m2
07:09 44.8 °F 42.3 °F 29.75 in ESE 6.2 mph 19 mph 91% 0.00 in 0 W/m2
07:14 44.9 °F 42.3 °F 29.76 in ESE 6.3 mph 14 mph 91% 0.00 in 0 W/m2
07:19 45 °F 42.4 °F 29.75 in SE 6.4 mph 11 mph 91% 0.00 in 0 W/m2
07:24 45.1 °F 42.6 °F 29.75 in SE 10.4 mph 20 mph 91% 0.00 in 0 W/m2
07:29 45.1 °F 42.6 °F 29.75 in SSE 8.5 mph 18 mph 91% 0.00 in 0 W/m2
07:34 45.1 °F 42.6 °F 29.75 in SE 7 mph 19 mph 91% 0.00 in 0 W/m2
07:39 45.2 °F 42.7 °F 29.75 in SE 10 mph 20 mph 91% 0.00 in 0 W/m2
07:44 45.3 °F 42.8 °F 29.75 in SE 9.6 mph 20 mph 91% 0.00 in 0 W/m2
07:49 45.3 °F 42.8 °F 29.74 in SE 9.2 mph 19 mph 90.8% 0.00 in 0 W/m2
07:54 45.3 °F 42.6 °F 29.74 in SSE 10.8 mph 16 mph 90% 0.00 in 0 W/m2
07:59 45.3 °F 42.6 °F 29.74 in SE 8.8 mph 15 mph 90% 0.00 in 0 W/m2
08:04 45.1 °F 42.4 °F 29.74 in SE 11.6 mph 21 mph 90% 0.00 in 0 W/m2
08:09 45.3 °F 42.6 °F 29.73 in SE 11.9 mph 21 mph 90% 0.00 in 0 W/m2
08:14 45.3 °F 42.6 °F 29.74 in SE 9 mph 17 mph 90% 0.00 in 0 W/m2
08:19 45.3 °F 42.6 °F 29.73 in SSE 8.3 mph 21 mph 90% 0.00 in 0 W/m2
08:24 45.3 °F 42.6 °F 29.73 in SE 7 mph 18 mph 90% 0.00 in 0 W/m2
08:29 45.2 °F 42.5 °F 29.73 in SE 8.8 mph 16 mph 90% 0.00 in 0 W/m2
08:34 45.2 °F 42.5 °F 29.72 in SE 8 mph 17 mph 90% 0.00 in 0 W/m2
08:39 45.1 °F 42.4 °F 29.72 in SE 7.4 mph 17 mph 90% 0.00 in 0 W/m2
08:44 45.1 °F 42.4 °F 29.72 in SE 11.8 mph 20 mph 90% 0.00 in 5 W/m2
08:48 45.1 °F 42.6 °F 29.72 in SSE 8.7 mph 15 mph 90.8% 0.00 in 5 W/m2
08:54 45 °F 42.4 °F 29.72 in ESE 9.8 mph 16 mph 91% 0.00 in 5 W/m2
08:59 45 °F 42.4 °F 29.71 in SE 7.1 mph 16 mph 91% 0.00 in 7 W/m2
09:04 45 °F 42.4 °F 29.71 in SE 7.8 mph 16 mph 91% 0.00 in 9 W/m2
09:09 45 °F 42.4 °F 29.71 in SE 7.5 mph 17 mph 91% 0.00 in 14 W/m2
09:14 44.8 °F 42.3 °F 29.71 in SSE 10.6 mph 22 mph 91% 0.00 in 14 W/m2
09:19 44.8 °F 42.3 °F 29.71 in SSE 9 mph 21 mph 91% 0.00 in 16 W/m2
09:24 44.8 °F 42.3 °F 29.71 in ESE 9.4 mph 17 mph 91% 0.00 in 16 W/m2
09:29 44.8 °F 42.3 °F 29.70 in SE 7.5 mph 17 mph 91% 0.00 in 14 W/m2
09:34 44.6 °F 42.1 °F 29.70 in SE 8.4 mph 14 mph 91% 0.00 in 16 W/m2
09:39 44.5 °F 42 °F 29.70 in ESE 10.6 mph 18 mph 91% 0.00 in 19 W/m2
09:44 44.4 °F 41.9 °F 29.69 in SE 9 mph 17 mph 91% 0.00 in 25 W/m2
09:49 44.4 °F 41.9 °F 29.69 in ESE 7.5 mph 18 mph 91% 0.00 in 28 W/m2
09:54 44.4 °F 41.9 °F 29.68 in SE 9.2 mph 19 mph 91% 0.00 in 32 W/m2
09:59 44.4 °F 41.9 °F 29.68 in SE 10.2 mph 19 mph 91% 0.00 in 35 W/m2
10:04 44.4 °F 41.8 °F 29.68 in ESE 12.6 mph 24 mph 90.4% 0.00 in 33 W/m2
10:09 44.4 °F 41.7 °F 29.69 in SSE 8.4 mph 17 mph 90% 0.00 in 28 W/m2
10:14 44.4 °F 41.7 °F 29.69 in SSE 6.4 mph 14 mph 90% 0.00 in 19 W/m2
10:19 44.3 °F 41.6 °F 29.69 in ESE 8.2 mph 14 mph 90% 0.00 in 23 W/m2
10:24 44.2 °F 41.4 °F 29.69 in ESE 13.6 mph 24 mph 89.6% 0.00 in 25 W/m2
10:29 44.2 °F 41.2 °F 29.69 in ESE 8.8 mph 24 mph 89% 0.00 in 21 W/m2
10:34 44.2 °F 41.2 °F 29.69 in SE 11.5 mph 19 mph 89% 0.00 in 25 W/m2
10:39 44.2 °F 41.2 °F 29.68 in SE 8 mph 22 mph 89% 0.00 in 21 W/m2
10:44 44.2 °F 41.2 °F 29.68 in SE 10.1 mph 20 mph 89% 0.00 in 23 W/m2
10:49 44.2 °F 41.2 °F 29.69 in SE 11.8 mph 23 mph 89% 0.00 in 26 W/m2
10:54 44.1 °F 41.1 °F 29.68 in ESE 9 mph 24 mph 89% 0.00 in 26 W/m2
10:59 44.1 °F 41 °F 29.67 in SE 8.2 mph 24 mph 89% 0.00 in 26 W/m2
11:04 44.1 °F 41.2 °F 29.67 in SE 9.8 mph 20 mph 89.6% 0.00 in 30 W/m2
11:09 44.1 °F 41.4 °F 29.67 in SE 10.5 mph 20 mph 90% 0.00 in 30 W/m2
11:14 44.2 °F 41.5 °F 29.66 in SE 12.8 mph 22 mph 90% 0.00 in 35 W/m2
11:19 44.2 °F 41.5 °F 29.66 in SE 9.6 mph 20 mph 90% 0.00 in 44 W/m2
11:24 44.3 °F 41.6 °F 29.65 in SE 14.2 mph 24 mph 90% 0.00 in 44 W/m2
11:29 44.4 °F 41.7 °F 29.65 in SE 9.7 mph 19 mph 90% 0.00 in 44 W/m2
11:34 44.4 °F 41.9 °F 29.65 in SE 10.2 mph 19 mph 91% 0.00 in 37 W/m2
11:39 44.3 °F 41.8 °F 29.65 in SE 10 mph 20 mph 91% 0.00 in 40 W/m2
11:44 44.4 °F 41.9 °F 29.65 in ESE 11 mph 21 mph 91% 0.00 in 40 W/m2
11:48 44.3 °F 41.8 °F 29.65 in SE 8.5 mph 17 mph 91% 0.00 in 40 W/m2
11:54 44.4 °F 41.9 °F 29.65 in SE 9.2 mph 17 mph 91% 0.00 in 35 W/m2
11:59 44.4 °F 41.9 °F 29.64 in SE 7.6 mph 16 mph 91% 0.00 in 35 W/m2
12:04 44.4 °F 42.1 °F 29.64 in SE 9.4 mph 16 mph 91.4% 0.00 in 37 W/m2
12:09 44.4 °F 42.3 °F 29.63 in SE 8.2 mph 17 mph 92% 0.01 in 39 W/m2
12:14 44.6 °F 42.4 °F 29.63 in SE 9.2 mph 17 mph 92% 0.01 in 44 W/m2
12:19 44.6 °F 42.4 °F 29.62 in SE 7.8 mph 14 mph 92% 0.01 in 46 W/m2
12:24 44.6 °F 42.4 °F 29.62 in SE 11.5 mph 19 mph 92% 0.01 in 35 W/m2
12:29 44.6 °F 42.4 °F 29.62 in SE 10.2 mph 18 mph 92% 0.01 in 37 W/m2
12:34 44.6 °F 42.4 °F 29.62 in ESE 8.6 mph 17 mph 92% 0.01 in 35 W/m2
12:39 44.6 °F 42.4 °F 29.61 in ESE 9.2 mph 17 mph 92% 0.01 in 39 W/m2
12:44 44.6 °F 42.4 °F 29.61 in SE 9 mph 19 mph 92% 0.01 in 39 W/m2
12:49 44.6 °F 42.4 °F 29.60 in SE 8.8 mph 17 mph 92% 0.01 in 40 W/m2
12:54 44.5 °F 42.4 °F 29.60 in SE 5.3 mph 18 mph 92% 0.01 in 42 W/m2
12:59 44.6 °F 42.4 °F 29.60 in SE 8.2 mph 15 mph 92% 0.01 in 46 W/m2
13:04 44.6 °F 42.4 °F 29.60 in SE 9.9 mph 16 mph 92% 0.01 in 42 W/m2
13:09 44.6 °F 42.4 °F 29.59 in ESE 8.4 mph 17 mph 92% 0.01 in 40 W/m2
13:14 44.7 °F 42.5 °F 29.59 in ESE 6.8 mph 19 mph 92% 0.00 in 35 W/m2
13:19 44.6 °F 42.4 °F 29.59 in SE 8.6 mph 17 mph 92% 0.00 in 32 W/m2
13:24 44.7 °F 42.5 °F 29.59 in SE 7.4 mph 17 mph 92% 0.00 in 28 W/m2
13:29 44.6 °F 42.4 °F 29.59 in SE 7.9 mph 14 mph 92% 0.00 in 26 W/m2
13:34 44.6 °F 42.4 °F 29.58 in SE 8.6 mph 15 mph 92% 0.00 in 25 W/m2
13:39 44.8 °F 42.6 °F 29.58 in ESE 8.8 mph 19 mph 92% 0.01 in 19 W/m2
13:44 44.8 °F 42.6 °F 29.58 in SE 5.9 mph 18 mph 92% 0.01 in 19 W/m2
13:49 44.7 °F 42.5 °F 29.57 in SE 6.6 mph 18 mph 92% 0.01 in 23 W/m2
13:54 44.6 °F 42.4 °F 29.57 in SE 6.4 mph 18 mph 92% 0.02 in 25 W/m2
13:59 44.5 °F 42.3 °F 29.56 in SE 7.6 mph 17 mph 92% 0.02 in 21 W/m2
14:04 44.4 °F 42.3 °F 29.54 in SE 8.2 mph 18 mph 92.2% 0.02 in 25 W/m2
14:09 44.4 °F 42.3 °F 29.52 in SE 13.4 mph 21 mph 92.4% 0.02 in 32 W/m2
14:14 44.4 °F 42.4 °F 29.54 in SE 9.1 mph 20 mph 93% 0.02 in 33 W/m2
14:19 44.5 °F 42.5 °F 29.54 in SE 7.5 mph 14 mph 93% 0.02 in 18 W/m2
14:24 44.5 °F 42.5 °F 29.54 in ESE 6.6 mph 15 mph 93% 0.02 in 12 W/m2
14:29 44.6 °F 42.6 °F 29.54 in SE 6.6 mph 14 mph 93% 0.02 in 11 W/m2
14:34 44.6 °F 42.6 °F 29.54 in ESE 5.9 mph 19 mph 93% 0.02 in 9 W/m2
14:39 44.8 °F 42.8 °F 29.53 in SE 5.5 mph 19 mph 93% 0.02 in 9 W/m2
14:44 44.8 °F 42.8 °F 29.53 in SE 6.2 mph 13 mph 93% 0.02 in 9 W/m2
14:49 44.8 °F 42.8 °F 29.53 in SE 5.7 mph 13 mph 93% 0.02 in 9 W/m2
14:54 44.8 °F 42.8 °F 29.52 in SE 9.6 mph 14 mph 93% 0.02 in 11 W/m2
14:59 44.8 °F 42.8 °F 29.52 in SE 5.6 mph 16 mph 93% 0.02 in 11 W/m2
15:04 44.8 °F 42.8 °F 29.52 in SE 5.5 mph 14 mph 93% 0.02 in 9 W/m2
15:09 44.8 °F 42.8 °F 29.52 in SE 7.4 mph 14 mph 93% 0.02 in 9 W/m2
15:14 44.8 °F 42.8 °F 29.52 in SE 6.4 mph 14 mph 93% 0.01 in 7 W/m2
15:19 44.9 °F 43 °F 29.52 in SE 5.4 mph 14 mph 93.2% 0.02 in 9 W/m2
15:24 45 °F 43.3 °F 29.52 in SE 7.4 mph 16 mph 94% 0.02 in 5 W/m2
15:29 45 °F 43.3 °F 29.51 in SSE 6.3 mph 16 mph 94% 0.02 in 5 W/m2
15:34 45 °F 43.3 °F 29.51 in SE 6.4 mph 16 mph 94% 0.02 in 5 W/m2
15:39 45 °F 43.3 °F 29.51 in SE 7.1 mph 12 mph 94% 0.02 in 5 W/m2
15:44 45 °F 43.4 °F 29.51 in ESE 5.3 mph 13 mph 94% 0.02 in 5 W/m2
15:49 45.1 °F 43.5 °F 29.50 in SE 5.3 mph 16 mph 94% 0.02 in 0 W/m2
15:54 45.1 °F 43.5 °F 29.50 in SE 6.4 mph 13 mph 94% 0.03 in 0 W/m2
15:59 45.1 °F 43.5 °F 29.50 in SSE 5.4 mph 13 mph 94% 0.03 in 0 W/m2
16:04 45.1 °F 43.5 °F 29.50 in SE 5.2 mph 13 mph 94% 0.02 in 0 W/m2
16:09 45.2 °F 43.6 °F 29.50 in SE 6.8 mph 12 mph 94% 0.02 in 0 W/m2
16:14 45.3 °F 43.7 °F 29.50 in SE 4.9 mph 10 mph 94% 0.02 in 0 W/m2
16:19 45.3 °F 43.7 °F 29.50 in SE 5.4 mph 11 mph 94% 0.02 in 0 W/m2
16:24 45.3 °F 43.7 °F 29.50 in SSE 5.3 mph 9 mph 94% 0.02 in 0 W/m2
16:29 45.5 °F 43.9 °F 29.50 in SSE 4.4 mph 10 mph 94% 0.02 in 0 W/m2
16:34 45.7 °F 44.1 °F 29.50 in SE 7.6 mph 14 mph 94% 0.02 in 0 W/m2
16:39 45.7 °F 44.1 °F 29.50 in SE 9.2 mph 15 mph 94% 0.01 in 0 W/m2
16:44 45.8 °F 44.1 °F 29.50 in SSE 6.6 mph 13 mph 94% 0.01 in 0 W/m2
16:49 45.9 °F 44.2 °F 29.50 in SE 5.8 mph 10 mph 94% 0.01 in 0 W/m2
16:54 45.9 °F 44.2 °F 29.50 in SE 4.8 mph 9 mph 94% 0.00 in 0 W/m2
16:59 45.9 °F 44.2 °F 29.50 in SE 5.1 mph 10 mph 94% 0.00 in 0 W/m2
17:04 46 °F 44.3 °F 29.50 in SE 5.4 mph 11 mph 94% 0.00 in 0 W/m2
17:09 46 °F 44.4 °F 29.50 in SSE 3.3 mph 9 mph 94% 0.00 in 0 W/m2
17:14 46 °F 44.4 °F 29.50 in SSE 5.1 mph 11 mph 94% 0.00 in 0 W/m2
17:19 46.2 °F 44.6 °F 29.50 in SE 3.2 mph 8 mph 94% 0.00 in 0 W/m2
17:24 46.2 °F 44.6 °F 29.50 in South 1 mph 6 mph 94% 0.00 in 0 W/m2
17:29 46.2 °F 44.6 °F 29.50 in South 2.4 mph 4 mph 94% 0.00 in 0 W/m2
17:34 46.2 °F 44.6 °F 29.50 in SSE 3.7 mph 8 mph 94% 0.00 in 0 W/m2
17:39 46.2 °F 44.6 °F 29.49 in SSE 3.4 mph 7 mph 94% 0.00 in 0 W/m2
17:44 46.3 °F 44.7 °F 29.49 in SE 3.3 mph 10 mph 94% 0.00 in 0 W/m2
17:49 46.3 °F 44.7 °F 29.49 in SSE 1.3 mph 7 mph 94% 0.00 in 0 W/m2
17:54 46.4 °F 44.8 °F 29.50 in SSE 0.9 mph 4 mph 94% 0.00 in 0 W/m2
17:59 46.4 °F 44.8 °F 29.50 in SE 1.2 mph 4 mph 94% 0.00 in 0 W/m2
18:04 46.3 °F 44.7 °F 29.50 in East 1 mph 4 mph 94% 0.00 in 0 W/m2
18:09 46.4 °F 44.8 °F 29.51 in East 0.9 mph 3 mph 94% 0.00 in 0 W/m2
18:14 46.8 °F 45.2 °F 29.51 in East 1 mph 3 mph 94% 0.00 in 0 W/m2
18:19 46.8 °F 45.1 °F 29.51 in SSE 2.9 mph 5 mph 94% 0.00 in 0 W/m2
18:24 46.7 °F 45 °F 29.51 in SSE 1.2 mph 4 mph 94% 0.00 in 0 W/m2
18:29 46.6 °F 45 °F 29.51 in SSE 0.8 mph 3 mph 94% 0.00 in 0 W/m2
18:34 46.6 °F 45 °F 29.51 in SSE 0.8 mph 2 mph 94% 0.00 in 0 W/m2
18:39 46.6 °F 45 °F 29.52 in SSE 1.6 mph 3 mph 94% 0.00 in 0 W/m2
18:44 46.6 °F 45 °F 29.52 in SSE 0.9 mph 3 mph 94% 0.00 in 0 W/m2
18:49 46.4 °F 44.8 °F 29.52 in SSE 2.8 mph 6 mph 94% 0.00 in 0 W/m2
18:54 46.4 °F 44.8 °F 29.51 in NW 1.5 mph 6 mph 94% 0.00 in 0 W/m2
18:59 46.5 °F 44.9 °F 29.51 in NW 0.4 mph 2 mph 94% 0.00 in 0 W/m2
19:04 46.3 °F 44.8 °F 29.52 in Calm     94% 0.00 in 0 W/m2
19:09 46.2 °F 44.6 °F 29.52 in Calm     94.2% 0.00 in 0 W/m2
19:14 46.2 °F 44.7 °F 29.52 in Calm     94.6% 0.00 in 0 W/m2
19:19 46.2 °F 44.8 °F 29.51 in Calm     95% 0.00 in 0 W/m2
19:24 46.1 °F 44.7 °F 29.52 in Calm     95% 0.00 in 0 W/m2
19:29 46 °F 44.5 °F 29.52 in Calm     94.8% 0.00 in 0 W/m2
19:34 45.9 °F 44.2 °F 29.52 in Calm     94% 0.00 in 0 W/m2
19:39 45.9 °F 44.3 °F 29.52 in NW 1.4 mph 4 mph 94.4% 0.00 in 0 W/m2
19:44 46 °F 44.6 °F 29.52 in NW 1.6 mph 4 mph 95% 0.00 in 0 W/m2
19:49 46.1 °F 44.7 °F 29.52 in NW 1.9 mph 3 mph 95% 0.00 in 0 W/m2
19:54 46.2 °F 44.8 °F 29.52 in NW 2 mph 4 mph 95% 0.00 in 0 W/m2
19:59 46.2 °F 44.8 °F 29.52 in NW 1.3 mph 3 mph 95% 0.00 in 0 W/m2
20:04 46.2 °F 44.8 °F 29.52 in NW 1.6 mph 3 mph 95% 0.00 in 0 W/m2
20:09 46.2 °F 44.8 °F 29.52 in NW 2.1 mph 3 mph 95% 0.00 in 0 W/m2
20:14 46.2 °F 44.8 °F 29.52 in NW 2.4 mph 4 mph 95% 0.00 in 0 W/m2
20:19 46.2 °F 44.8 °F 29.52 in NW 2.1 mph 4 mph 95% 0.00 in 0 W/m2
20:24 46.2 °F 44.8 °F 29.52 in NW 2.5 mph 4 mph 95% 0.00 in 0 W/m2
20:29 46.2 °F 44.8 °F 29.52 in NW 2.4 mph 4 mph 95% 0.00 in 0 W/m2
20:34 46.2 °F 44.8 °F 29.52 in WNW 1.7 mph 4 mph 95% 0.00 in 0 W/m2
20:39 46.2 °F 44.8 °F 29.52 in WNW 2 mph 3 mph 95% 0.00 in 0 W/m2
20:44 46.1 °F 44.7 °F 29.53 in WNW 2 mph 4 mph 95% 0.00 in 0 W/m2
20:49 46 °F 44.6 °F 29.53 in WNW 2.5 mph 4 mph 95% 0.00 in 0 W/m2
20:54 46 °F 44.6 °F 29.52 in WNW 2.2 mph 3 mph 95% 0.00 in 0 W/m2
20:59 46 °F 44.6 °F 29.52 in WNW 2.4 mph 4 mph 95% 0.00 in 0 W/m2
21:04 45.9 °F 44.5 °F 29.53 in WNW 1.8 mph 3 mph 95% 0.00 in 0 W/m2
21:09 46 °F 44.5 °F 29.53 in WNW 1.1 mph 4 mph 95% 0.00 in 0 W/m2
21:14 45.9 °F 44.4 °F 29.53 in WNW 0.4 mph 2 mph 95% 0.00 in 0 W/m2
21:19 45.8 °F 44.4 °F 29.53 in WNW 1.4 mph 2 mph 95% 0.00 in 0 W/m2
21:24 45.4 °F 44.2 °F 29.53 in WNW 1.8 mph 3 mph 95% 0.00 in 0 W/m2
21:29 45.5 °F 44.3 °F 29.54 in WNW 2.1 mph 4 mph 95% 0.00 in 0 W/m2
21:34 45.7 °F 44.4 °F 29.54 in WNW 2 mph 4 mph 95% 0.00 in 0 W/m2
21:39 45.7 °F 44.4 °F 29.54 in WNW 2.1 mph 4 mph 95% 0.00 in 0 W/m2
21:44 45.6 °F 44.3 °F 29.54 in WNW 2 mph 3 mph 95% 0.00 in 0 W/m2
21:49 45.2 °F 44 °F 29.54 in WNW 1.3 mph 3 mph 95% 0.00 in 0 W/m2
21:54 44.9 °F 43.7 °F 29.54 in WNW 1.2 mph 3 mph 95% 0.00 in 0 W/m2
21:59 44.8 °F 43.5 °F 29.54 in WNW 2.5 mph 3 mph 95% 0.00 in 0 W/m2
22:04 44.8 °F 43.5 °F 29.54 in WNW 1.8 mph 4 mph 95% 0.00 in 0 W/m2
22:09 44.8 °F 43.5 °F 29.54 in West 2.2 mph 4 mph 95% 0.00 in 0 W/m2
22:14 44.9 °F 43.6 °F 29.54 in West 2 mph 4 mph 95% 0.00 in 0 W/m2
22:19 45 °F 43.8 °F 29.54 in West 2.1 mph 4 mph 95% 0.00 in 0 W/m2
22:24 45.1 °F 43.9 °F 29.54 in West 1.9 mph 4 mph 95% 0.00 in 0 W/m2
22:29 45.1 °F 43.8 °F 29.54 in West 2.1 mph 3 mph 95% 0.00 in 0 W/m2
22:34 45 °F 43.7 °F 29.54 in West 2.4 mph 3 mph 95% 0.00 in 0 W/m2
22:39 44.8 °F 43.5 °F 29.54 in West 1.9 mph 4 mph 95% 0.00 in 0 W/m2
22:44 44.8 °F 43.5 °F 29.54 in West 1.3 mph 4 mph 95% 0.00 in 0 W/m2
22:49 44.4 °F 43.2 °F 29.55 in West 2 mph 3 mph 95% 0.00 in 0 W/m2
22:54 44.2 °F 43 °F 29.55 in West 1.8 mph 3 mph 95% 0.00 in 0 W/m2
22:59 44.1 °F 42.8 °F 29.55 in West 2 mph 3 mph 95% 0.00 in 0 W/m2
23:04 44 °F 42.7 °F 29.55 in West 2.4 mph 4 mph 95% 0.00 in 0 W/m2
23:09 43.9 °F 42.6 °F 29.55 in West 2.2 mph 4 mph 95% 0.00 in 0 W/m2
23:14 43.9 °F 42.6 °F 29.56 in West 2 mph 5 mph 95% 0.00 in 0 W/m2
23:19 43.8 °F 42.5 °F 29.56 in West 2 mph 3 mph 95% 0.00 in 0 W/m2
23:24 43.7 °F 42.4 °F 29.56 in West 2.5 mph 3 mph 95% 0.00 in 0 W/m2
23:29 43.8 °F 42.5 °F 29.56 in West 1.6 mph 3 mph 95% 0.00 in 0 W/m2
23:34 43.6 °F 42.4 °F 29.57 in West 1.6 mph 3 mph 95% 0.00 in 0 W/m2
23:39 43.4 °F 42.2 °F 29.57 in West 2 mph 3 mph 95% 0.00 in 0 W/m2
23:44 43.4 °F 42.2 °F 29.57 in West 2.4 mph 3 mph 95% 0.00 in 0 W/m2
23:49 43.5 °F 42.3 °F 29.57 in West 2 mph 4 mph 95% 0.00 in 0 W/m2
23:54 43.4 °F 42.2 °F 29.57 in WNW 2.2 mph 5 mph 95% 0.00 in 0 W/m2
23:59 43.5 °F 42.3 °F 29.57 in WNW 2.4 mph 4 mph 95% 0.00 in 0 W/m2
Bath Spa Weather
Compliments of Weather Underground - 2 mb